Time;durP1;ratioP1;P1;durP2;ratioP2;P2;SDS_P1;SDS_P2;PMS_P1;PMS_P2;Temp;Humidity;BMP_temperature;BMP_pressure;BME280_temperature;BME280_humidity;BME280_pressure;Samples;Min_cycle;Max_cycle;Signal;HPM_P1;HPM_P2
2021/03/19 00:01:40;;;;;;;8.52;4.65;;;;;;;;;;4984401;28;20046;-84
2021/03/19 00:04:25;;;;;;;10.10;4.95;;;;;;;;;;4980302;28;20465;-83
2021/03/19 00:07:10;;;;;;;8.85;4.90;;;;;;;;;;4998470;28;20105;-82
2021/03/19 00:09:56;;;;;;;12.18;5.43;;;;;;;;;;4978720;28;20026;-83
2021/03/19 00:12:41;;;;;;;8.93;5.13;;;;;;;;;;4982837;28;20025;-83
2021/03/19 00:15:27;;;;;;;10.27;4.63;;;;;;;;;;4968142;28;20018;-82
2021/03/19 00:18:13;;;;;;;13.40;4.53;;;;;;;;;;4983481;28;20365;-84
2021/03/19 00:20:58;;;;;;;7.68;4.95;;;;;;;;;;4981833;28;20120;-82
2021/03/19 00:23:43;;;;;;;9.27;5.30;;;;;;;;;;4987316;28;20026;-82
2021/03/19 00:26:28;;;;;;;11.45;5.45;;;;;;;;;;4976986;28;20030;-85
2021/03/19 00:29:13;;;;;;;10.93;5.63;;;;;;;;;;4966049;28;20488;-83
2021/03/19 00:31:59;;;;;;;10.65;4.75;;;;;;;;;;4984663;28;20026;-83
2021/03/19 00:34:44;;;;;;;8.60;4.68;;;;;;;;;;4999926;28;20022;-83
2021/03/19 00:37:29;;;;;;;10.60;5.22;;;;;;;;;;4985535;28;20034;-83
2021/03/19 00:40:15;;;;;;;11.10;5.30;;;;;;;;;;4987740;28;20037;-85
2021/03/19 00:43:01;;;;;;;9.07;5.45;;;;;;;;;;4984096;28;20018;-83
2021/03/19 00:45:46;;;;;;;11.05;5.20;;;;;;;;;;4996826;28;20047;-84
2021/03/19 00:48:31;;;;;;;11.75;5.95;;;;;;;;;;4968780;28;20037;-84
2021/03/19 00:51:16;;;;;;;10.18;5.45;;;;;;;;;;4984402;28;20591;-84
2021/03/19 00:54:02;;;;;;;9.80;5.20;;;;;;;;;;4984629;28;20027;-84
2021/03/19 00:56:47;;;;;;;11.13;5.40;;;;;;;;;;5001916;28;20030;-85
2021/03/19 00:59:32;;;;;;;10.30;5.32;;;;;;;;;;4998660;28;20048;-86
2021/03/19 01:02:18;;;;;;;9.90;5.95;;;;;;;;;;4988059;28;20054;-86
2021/03/19 01:05:04;;;;;;;9.00;5.22;;;;;;;;;;4984917;28;20073;-86
2021/03/19 01:07:50;;;;;;;9.77;5.40;;;;;;;;;;4996608;28;20046;-85
2021/03/19 01:10:38;;;;;;;9.88;5.63;;;;;;;;;;4981820;28;20022;-85
2021/03/19 01:13:24;;;;;;;12.07;5.60;;;;;;;;;;4974687;28;20080;-84
2021/03/19 01:16:09;;;;;;;9.32;5.43;;;;;;;;;;4985488;28;20034;-84
2021/03/19 01:18:55;;;;;;;9.98;5.88;;;;;;;;;;4984666;28;20025;-85
2021/03/19 01:21:40;;;;;;;9.82;6.15;;;;;;;;;;4986596;28;20537;-84
2021/03/19 01:24:25;;;;;;;9.52;5.47;;;;;;;;;;4984608;28;20027;-84
2021/03/19 01:27:10;;;;;;;10.40;5.75;;;;;;;;;;4997934;28;20408;-83
2021/03/19 01:29:56;;;;;;;9.15;6.00;;;;;;;;;;4965581;28;20405;-83
2021/03/19 01:32:41;;;;;;;11.35;6.68;;;;;;;;;;5001281;28;20033;-85
2021/03/19 01:35:29;;;;;;;13.70;6.70;;;;;;;;;;4987531;28;20034;-84
2021/03/19 01:38:14;;;;;;;11.40;6.28;;;;;;;;;;4985403;28;20022;-82
2021/03/19 01:40:59;;;;;;;10.48;5.95;;;;;;;;;;4991537;28;20117;-86
2021/03/19 01:43:57;;;;;;;11.55;6.10;;;;;;;;;;4977308;28;20041;-85
2021/03/19 01:47:01;;;;;;;10.75;6.03;;;;;;;;;;5004227;28;20042;-83
2021/03/19 01:50:05;;;;;;;10.75;6.65;;;;;;;;;;4971583;28;20018;-83
2021/03/19 01:53:09;;;;;;;10.27;6.20;;;;;;;;;;5002665;28;20042;-83
2021/03/19 01:56:13;;;;;;;11.70;6.82;;;;;;;;;;4990608;28;20014;-82
2021/03/19 01:59:17;;;;;;;11.23;6.47;;;;;;;;;;4976548;28;20034;-83
2021/03/19 02:02:21;;;;;;;13.30;7.13;;;;;;;;;;4982559;28;20109;-83
2021/03/19 02:05:25;;;;;;;13.32;7.28;;;;;;;;;;4986454;28;20022;-84
2021/03/19 02:08:30;;;;;;;12.40;7.45;;;;;;;;;;4985719;28;20432;-85
2021/03/19 02:11:34;;;;;;;11.40;7.03;;;;;;;;;;4988163;28;20422;-84
2021/03/19 02:14:38;;;;;;;11.57;7.78;;;;;;;;;;4992783;28;20041;-84
2021/03/19 02:17:42;;;;;;;18.52;9.90;;;;;;;;;;5001094;28;20038;-84
2021/03/19 02:20:46;;;;;;;13.88;8.40;;;;;;;;;;4979650;28;20097;-83
2021/03/19 02:23:50;;;;;;;11.75;7.68;;;;;;;;;;4999305;28;20055;-85
2021/03/19 02:26:54;;;;;;;17.70;8.35;;;;;;;;;;4997315;28;20026;-84
2021/03/19 02:29:58;;;;;;;12.27;7.95;;;;;;;;;;4985338;28;20033;-83
2021/03/19 02:32:43;;;;;;;19.48;7.43;;;;;;;;;;5002689;28;20018;-84
2021/03/19 02:35:29;;;;;;;12.23;6.75;;;;;;;;;;4975310;28;20129;-85
2021/03/19 02:38:14;;;;;;;14.52;8.82;;;;;;;;;;4982306;28;20037;-85
2021/03/19 02:41:00;;;;;;;14.30;8.95;;;;;;;;;;4980540;28;20037;-84
2021/03/19 02:43:45;;;;;;;14.07;8.60;;;;;;;;;;4986096;28;20030;-84
2021/03/19 02:46:30;;;;;;;14.90;9.48;;;;;;;;;;5001250;28;20077;-84
2021/03/19 02:49:16;;;;;;;21.63;9.60;;;;;;;;;;5003497;28;20019;-85
2021/03/19 02:52:01;;;;;;;16.13;9.02;;;;;;;;;;4985935;28;20022;-84
2021/03/19 02:54:46;;;;;;;14.35;9.00;;;;;;;;;;4987162;28;20366;-83
2021/03/19 02:57:32;;;;;;;13.85;7.78;;;;;;;;;;4985271;28;20037;-82
2021/03/19 03:00:18;;;;;;;16.30;8.50;;;;;;;;;;4987616;28;20058;-81
2021/03/19 03:03:04;;;;;;;14.27;8.70;;;;;;;;;;4982296;28;20073;-82
2021/03/19 03:05:49;;;;;;;14.93;9.20;;;;;;;;;;4983801;28;20408;-83
2021/03/19 03:08:34;;;;;;;14.95;8.52;;;;;;;;;;4998559;28;20034;-83
2021/03/19 03:11:20;;;;;;;13.63;8.32;;;;;;;;;;5004016;28;20022;-84
2021/03/19 03:14:06;;;;;;;18.98;9.30;;;;;;;;;;4987456;28;20022;-82
2021/03/19 03:16:51;;;;;;;14.23;9.18;;;;;;;;;;4998267;28;20063;-86
2021/03/19 03:19:37;;;;;;;13.45;8.45;;;;;;;;;;5001367;28;20477;-84
2021/03/19 03:22:22;;;;;;;13.00;8.48;;;;;;;;;;4986018;28;20359;-85
2021/03/19 03:25:08;;;;;;;16.13;8.68;;;;;;;;;;4970544;28;20045;-83
2021/03/19 03:27:54;;;;;;;13.70;8.90;;;;;;;;;;4983176;28;20030;-83
2021/03/19 03:30:41;;;;;;;18.38;9.75;;;;;;;;;;4988634;28;20041;-84
2021/03/19 03:33:27;;;;;;;14.00;9.13;;;;;;;;;;4981961;28;20628;-83
2021/03/19 03:36:12;;;;;;;16.48;8.85;;;;;;;;;;4983323;28;20106;-82
2021/03/19 03:38:57;;;;;;;14.48;9.27;;;;;;;;;;4973147;28;20496;-83
2021/03/19 03:41:43;;;;;;;14.85;8.77;;;;;;;;;;4983648;28;20038;-82
2021/03/19 03:44:28;;;;;;;14.88;9.77;;;;;;;;;;4989986;28;20046;-83
2021/03/19 03:47:13;;;;;;;16.00;9.52;;;;;;;;;;4991681;28;20026;-83
2021/03/19 03:49:59;;;;;;;13.95;8.80;;;;;;;;;;4988793;28;20435;-81
2021/03/19 03:52:44;;;;;;;14.13;9.52;;;;;;;;;;4974417;28;20393;-83
2021/03/19 03:55:29;;;;;;;14.18;9.52;;;;;;;;;;4988129;28;20038;-82
2021/03/19 03:58:15;;;;;;;14.55;9.02;;;;;;;;;;4988386;28;20121;-83
2021/03/19 04:01:00;;;;;;;18.63;10.57;;;;;;;;;;4974814;28;20069;-83
2021/03/19 04:03:46;;;;;;;14.63;10.10;;;;;;;;;;4999542;28;20026;-81
2021/03/19 04:06:31;;;;;;;16.42;9.75;;;;;;;;;;4985433;28;20025;-82
2021/03/19 04:09:17;;;;;;;15.63;10.57;;;;;;;;;;4977608;28;20026;-83
2021/03/19 04:12:02;;;;;;;14.32;10.02;;;;;;;;;;4980592;28;20033;-83
2021/03/19 04:14:47;;;;;;;13.80;8.75;;;;;;;;;;4994511;28;20018;-83
2021/03/19 04:17:33;;;;;;;15.00;10.07;;;;;;;;;;4990343;28;20030;-84
2021/03/19 04:20:18;;;;;;;16.48;10.77;;;;;;;;;;4986537;28;20026;-82
2021/03/19 04:23:04;;;;;;;15.77;9.77;;;;;;;;;;4991513;28;20492;-82
2021/03/19 04:25:50;;;;;;;17.35;10.95;;;;;;;;;;4990284;28;20021;-83
2021/03/19 04:28:37;;;;;;;17.08;10.57;;;;;;;;;;5005033;28;20022;-83
2021/03/19 04:31:23;;;;;;;15.70;10.02;;;;;;;;;;4990701;28;20105;-84
2021/03/19 04:34:08;;;;;;;17.05;11.02;;;;;;;;;;5002939;28;20038;-85
2021/03/19 04:36:55;;;;;;;13.80;10.30;;;;;;;;;;4986363;28;20026;-84
2021/03/19 04:39:42;;;;;;;14.00;9.05;;;;;;;;;;5009674;28;20021;-83
2021/03/19 04:42:27;;;;;;;18.88;10.43;;;;;;;;;;4988586;28;20168;-83
2021/03/19 04:45:13;;;;;;;14.90;10.13;;;;;;;;;;5003028;28;20092;-83
2021/03/19 04:47:59;;;;;;;17.88;10.75;;;;;;;;;;4989704;28;20033;-83
2021/03/19 04:50:45;;;;;;;17.13;9.82;;;;;;;;;;4992983;28;20096;-85
2021/03/19 04:53:30;;;;;;;15.63;10.88;;;;;;;;;;5003473;28;20065;-84
2021/03/19 04:56:16;;;;;;;16.77;11.10;;;;;;;;;;4992643;28;20056;-84
2021/03/19 04:59:01;;;;;;;15.30;9.40;;;;;;;;;;4984904;28;20017;-83
2021/03/19 05:01:46;;;;;;;16.17;10.55;;;;;;;;;;4976858;28;20028;-83
2021/03/19 05:04:34;;;;;;;18.15;10.43;;;;;;;;;;5002388;28;20018;-82
2021/03/19 05:07:19;;;;;;;17.08;10.30;;;;;;;;;;4991543;28;20405;-83
2021/03/19 05:10:05;;;;;;;15.20;9.48;;;;;;;;;;5003849;28;20030;-84
2021/03/19 05:12:51;;;;;;;15.63;9.98;;;;;;;;;;4988047;28;20049;-82
2021/03/19 05:15:37;;;;;;;17.63;11.48;;;;;;;;;;5001252;28;20431;-84
2021/03/19 05:18:22;;;;;;;16.45;10.32;;;;;;;;;;4989153;28;20065;-82
2021/03/19 05:21:07;;;;;;;14.00;9.73;;;;;;;;;;5007824;28;20362;-83
2021/03/19 05:23:53;;;;;;;17.45;9.82;;;;;;;;;;5005113;28;20271;-84
2021/03/19 05:26:39;;;;;;;19.75;11.15;;;;;;;;;;4988588;28;20069;-83
2021/03/19 05:29:24;;;;;;;16.48;10.75;;;;;;;;;;5002608;28;20469;-84
2021/03/19 05:32:10;;;;;;;14.45;9.25;;;;;;;;;;5001002;28;20132;-82
2021/03/19 05:34:55;;;;;;;15.73;10.20;;;;;;;;;;4990298;28;20560;-83
2021/03/19 05:37:40;;;;;;;16.02;11.00;;;;;;;;;;5002754;28;20080;-83
2021/03/19 05:40:35;;;;;;;16.42;11.32;;;;;;;;;;4987510;28;20025;-82
2021/03/19 05:43:20;;;;;;;16.33;11.45;;;;;;;;;;5005831;28;20065;-82
2021/03/19 05:46:08;;;;;;;16.77;10.73;;;;;;;;;;4990993;28;20412;-82
2021/03/19 05:48:53;;;;;;;19.83;12.77;;;;;;;;;;5001090;28;20093;-83
2021/03/19 05:51:38;;;;;;;19.77;11.50;;;;;;;;;;4974597;28;20026;-82
2021/03/19 05:54:36;;;;;;;17.88;11.30;;;;;;;;;;4990277;28;20083;-83
2021/03/19 05:57:32;;;;;;;15.45;10.65;;;;;;;;;;4990404;28;20028;-82
2021/03/19 06:00:19;;;;;;;14.57;10.40;;;;;;;;;;4973042;28;20026;-82
2021/03/19 06:03:04;;;;;;;16.05;11.43;;;;;;;;;;4990973;28;20069;-84
2021/03/19 06:05:57;;;;;;;18.25;10.82;;;;;;;;;;4989929;28;20092;-82
2021/03/19 06:08:44;;;;;;;15.55;10.57;;;;;;;;;;4987722;28;20107;-83
2021/03/19 06:11:29;;;;;;;16.55;10.93;;;;;;;;;;4998850;28;20125;-83
2021/03/19 06:14:16;;;;;;;16.92;10.75;;;;;;;;;;4989607;28;20014;-84
2021/03/19 06:17:26;;;;;;;16.13;11.25;;;;;;;;;;5003839;28;20030;-84
2021/03/19 06:20:13;;;;;;;14.85;10.05;;;;;;;;;;4998154;28;20046;-82
2021/03/19 06:22:58;;;;;;;17.67;12.38;;;;;;;;;;5007670;28;20026;-83
2021/03/19 06:25:56;;;;;;;18.20;11.57;;;;;;;;;;5002570;28;20030;-85
2021/03/19 06:28:42;;;;;;;14.80;11.60;;;;;;;;;;4998450;28;20034;-85
2021/03/19 06:31:29;;;;;;;17.48;11.85;;;;;;;;;;5007630;28;20041;-84
2021/03/19 06:34:18;;;;;;;21.05;12.85;;;;;;;;;;4978173;28;20042;-84
2021/03/19 06:37:05;;;;;;;19.05;12.85;;;;;;;;;;4974502;28;20026;-83
2021/03/19 06:39:55;;;;;;;22.55;15.15;;;;;;;;;;4997530;28;20033;-85
2021/03/19 06:42:41;;;;;;;20.23;13.50;;;;;;;;;;4993706;28;20108;-83
2021/03/19 06:45:26;;;;;;;20.73;16.75;;;;;;;;;;4997821;28;20443;-84
2021/03/19 06:48:47;;;;;;;22.02;14.48;;;;;;;;;;4988225;28;20045;-82
2021/03/19 06:51:37;;;;;;;21.40;15.15;;;;;;;;;;4916132;28;20579;-85
2021/03/19 06:54:26;;;;;;;22.63;15.75;;;;;;;;;;4991324;28;20079;-82
2021/03/19 06:57:13;;;;;;;22.88;16.15;;;;;;;;;;4982420;28;20029;-82
2021/03/19 07:00:00;;;;;;;33.20;23.90;;;;;;;;;;4993074;28;20030;-81
2021/03/19 07:02:57;;;;;;;25.77;18.55;;;;;;;;;;5004117;28;20092;-85
2021/03/19 07:05:49;;;;;;;22.98;15.82;;;;;;;;;;4998929;28;20064;-85
2021/03/19 07:08:40;;;;;;;23.70;16.88;;;;;;;;;;4992065;28;20032;-85
2021/03/19 07:11:33;;;;;;;22.30;16.23;;;;;;;;;;5003433;28;20053;-84
2021/03/19 07:14:39;;;;;;;25.42;17.75;;;;;;;;;;4992426;28;20044;-83
2021/03/19 07:17:37;;;;;;;24.80;17.23;;;;;;;;;;4991042;28;20956;-82
2021/03/19 07:20:22;;;;;;;22.20;16.27;;;;;;;;;;5004735;28;20029;-85
2021/03/19 07:23:21;;;;;;;23.45;16.45;;;;;;;;;;4990960;28;20427;-83
2021/03/19 07:26:11;;;;;;;21.25;15.57;;;;;;;;;;4990820;28;20030;-82
2021/03/19 07:29:15;;;;;;;25.33;18.08;;;;;;;;;;5002189;28;20084;-81
2021/03/19 07:32:07;;;;;;;23.83;17.52;;;;;;;;;;5005445;28;20040;-81
2021/03/19 07:34:55;;;;;;;26.33;17.27;;;;;;;;;;4991405;28;20025;-81
2021/03/19 07:37:56;;;;;;;25.65;17.42;;;;;;;;;;4990558;28;20029;-81
2021/03/19 07:40:50;;;;;;;27.05;17.15;;;;;;;;;;4999979;28;20660;-82
2021/03/19 07:43:54;;;;;;;26.30;18.60;;;;;;;;;;4999382;28;20036;-82
2021/03/19 07:46:49;;;;;;;22.90;17.70;;;;;;;;;;5002921;28;20093;-82
2021/03/19 07:49:54;;;;;;;29.38;19.13;;;;;;;;;;4987496;28;20030;-81
2021/03/19 07:52:49;;;;;;;22.60;17.63;;;;;;;;;;5003741;28;20160;-80
2021/03/19 07:55:39;;;;;;;47.33;31.38;;;;;;;;;;4989892;28;20014;-81
2021/03/19 07:58:27;;;;;;;19.70;14.45;;;;;;;;;;5003419;28;20034;-82
2021/03/19 08:01:12;;;;;;;19.23;14.93;;;;;;;;;;4987931;28;20053;-81
2021/03/19 08:04:12;;;;;;;21.55;15.75;;;;;;;;;;4989461;28;20037;-81
2021/03/19 08:07:00;;;;;;;19.35;15.00;;;;;;;;;;4992593;28;20084;-81
2021/03/19 08:10:01;;;;;;;17.75;13.52;;;;;;;;;;4990480;28;20370;-81
2021/03/19 08:13:05;;;;;;;36.13;23.50;;;;;;;;;;5006995;28;20026;-80
2021/03/19 08:15:53;;;;;;;17.67;12.80;;;;;;;;;;5002861;28;20112;-81
2021/03/19 08:18:44;;;;;;;17.70;12.85;;;;;;;;;;4991443;28;20033;-81
2021/03/19 08:21:40;;;;;;;19.55;13.07;;;;;;;;;;4987640;28;20038;-80
2021/03/19 08:24:33;;;;;;;15.50;10.55;;;;;;;;;;4992517;28;20037;-80
2021/03/19 08:27:34;;;;;;;18.30;11.98;;;;;;;;;;4984433;28;20033;-82
2021/03/19 08:30:28;;;;;;;16.42;11.43;;;;;;;;;;4987600;28;20033;-80
2021/03/19 08:33:16;;;;;;;16.25;11.35;;;;;;;;;;4988524;28;20041;-81
2021/03/19 08:36:19;;;;;;;16.95;11.05;;;;;;;;;;4983311;28;20114;-86
2021/03/19 08:39:16;;;;;;;21.67;11.95;;;;;;;;;;4987457;28;20030;-80
2021/03/19 08:42:19;;;;;;;17.70;12.00;;;;;;;;;;4991079;28;20036;-80
2021/03/19 08:45:15;;;;;;;25.02;13.50;;;;;;;;;;4986487;28;20069;-80
2021/03/19 08:48:01;;;;;;;19.58;13.02;;;;;;;;;;4989435;28;20026;-81
2021/03/19 08:50:49;;;;;;;21.30;14.05;;;;;;;;;;4991836;28;20346;-82
2021/03/19 08:53:54;;;;;;;22.00;13.60;;;;;;;;;;4989628;28;20053;-81
2021/03/19 08:56:43;;;;;;;19.73;13.55;;;;;;;;;;4985095;28;20025;-81
2021/03/19 08:59:32;;;;;;;20.65;13.88;;;;;;;;;;4993614;28;20025;-80
2021/03/19 09:02:17;;;;;;;21.90;13.65;;;;;;;;;;4986435;28;20518;-81
2021/03/19 09:05:05;;;;;;;20.75;14.02;;;;;;;;;;4988702;28;20053;-83
2021/03/19 09:08:09;;;;;;;18.00;13.68;;;;;;;;;;4995652;28;20113;-81
2021/03/19 09:10:58;;;;;;;21.60;14.70;;;;;;;;;;4989587;28;20048;-81
2021/03/19 09:14:15;;;;;;;35.42;22.70;;;;;;;;;;4995808;28;20032;-83
2021/03/19 09:17:01;;;;;;;21.90;15.20;;;;;;;;;;4964025;28;20037;-81
2021/03/19 09:19:56;;;;;;;19.25;14.40;;;;;;;;;;4986582;28;20025;-83
2021/03/19 09:22:43;;;;;;;20.17;13.73;;;;;;;;;;4999988;28;20441;-82
2021/03/19 09:25:37;;;;;;;20.10;13.18;;;;;;;;;;4991958;28;20736;-80
2021/03/19 09:29:00;;;;;;;17.75;12.75;;;;;;;;;;4987446;28;20108;-88
2021/03/19 09:31:53;;;;;;;19.45;12.20;;;;;;;;;;4919267;29;20775;-84
2021/03/19 09:34:42;;;;;;;15.80;12.00;;;;;;;;;;4939004;28;20363;-81
2021/03/19 09:37:56;;;;;;;16.75;11.90;;;;;;;;;;4986022;28;20038;-85
2021/03/19 09:40:48;;;;;;;18.15;11.85;;;;;;;;;;4992026;28;20052;-87
2021/03/19 09:50:19;;;;;;;18.92;13.02;;;;;;;;;;4965316;28;20030;-86
2021/03/19 09:53:28;;;;;;;16.25;11.20;;;;;;;;;;4977334;28;20068;-82
2021/03/19 09:56:24;;;;;;;16.02;10.77;;;;;;;;;;5008094;28;20037;-87
2021/03/19 10:03:06;;;;;;;15.60;9.40;;;;;;;;;;4963430;28;20034;-83
2021/03/19 10:05:54;;;;;;;12.32;8.93;;;;;;;;;;4990655;28;20018;-83
2021/03/19 10:08:42;;;;;;;12.73;8.55;;;;;;;;;;5002653;28;20507;-83
2021/03/19 10:11:35;;;;;;;15.45;9.80;;;;;;;;;;4989151;28;20041;-84
2021/03/19 10:14:28;;;;;;;14.75;10.02;;;;;;;;;;5022264;28;20022;-85
2021/03/19 10:17:29;;;;;;;12.63;8.52;;;;;;;;;;4995350;28;20043;-83
2021/03/19 10:20:21;;;;;;;12.23;9.30;;;;;;;;;;4995245;28;20539;-84
2021/03/19 10:23:19;;;;;;;12.95;9.55;;;;;;;;;;5009687;28;20050;-85
2021/03/19 10:26:24;;;;;;;15.40;10.35;;;;;;;;;;4997600;28;20030;-83
2021/03/19 10:29:31;;;;;;;14.68;10.50;;;;;;;;;;5005250;28;20040;-82
2021/03/19 10:32:22;;;;;;;13.25;9.30;;;;;;;;;;5005408;28;20029;-82
2021/03/19 10:35:17;;;;;;;15.68;11.02;;;;;;;;;;4989863;28;20032;-85
2021/03/19 10:38:11;;;;;;;15.95;11.13;;;;;;;;;;4983961;28;20026;-82
2021/03/19 10:41:00;;;;;;;16.55;11.90;;;;;;;;;;4984494;28;20129;-84
2021/03/19 10:44:05;;;;;;;13.85;10.00;;;;;;;;;;4990782;28;20029;-85
2021/03/19 10:47:04;;;;;;;15.80;10.98;;;;;;;;;;4981420;28;20042;-85
2021/03/19 10:49:50;;;;;;;14.57;10.05;;;;;;;;;;4966344;28;20025;-85
2021/03/19 10:52:38;;;;;;;13.68;9.40;;;;;;;;;;4960439;28;20431;-85
2021/03/19 10:55:27;;;;;;;14.00;9.75;;;;;;;;;;4982321;28;20048;-84
2021/03/19 10:58:22;;;;;;;13.20;9.68;;;;;;;;;;4975339;28;20022;-84
2021/03/19 11:01:27;;;;;;;13.98;10.32;;;;;;;;;;4991107;28;20504;-86
2021/03/19 11:04:25;;;;;;;12.23;8.38;;;;;;;;;;4981108;28;20035;-81
2021/03/19 11:07:18;;;;;;;12.57;8.52;;;;;;;;;;4984041;28;20061;-84
2021/03/19 11:10:07;;;;;;;12.45;8.38;;;;;;;;;;4982277;28;20030;-84
2021/03/19 11:12:53;;;;;;;10.43;6.57;;;;;;;;;;4977620;28;20058;-82
2021/03/19 11:15:41;;;;;;;8.65;5.53;;;;;;;;;;4987002;28;20030;-82
2021/03/19 11:18:36;;;;;;;7.20;5.15;;;;;;;;;;4969682;28;20019;-82
2021/03/19 11:21:30;;;;;;;7.30;5.28;;;;;;;;;;4966005;28;20348;-82
2021/03/19 11:24:30;;;;;;;7.90;5.18;;;;;;;;;;4990040;28;20050;-82
2021/03/19 11:27:15;;;;;;;7.53;5.20;;;;;;;;;;4976165;28;20105;-81
2021/03/19 11:30:19;;;;;;;8.27;5.03;;;;;;;;;;4975943;28;20023;-81
2021/03/19 11:33:10;;;;;;;7.97;4.78;;;;;;;;;;4975994;28;20501;-83
2021/03/19 11:36:09;;;;;;;5.68;4.03;;;;;;;;;;4977858;28;20030;-82
2021/03/19 11:38:54;;;;;;;7.45;4.72;;;;;;;;;;4980106;28;20033;-82
2021/03/19 11:41:42;;;;;;;8.73;5.25;;;;;;;;;;4969813;28;20034;-82
2021/03/19 11:44:27;;;;;;;7.95;5.07;;;;;;;;;;4969353;28;20038;-82
2021/03/19 11:47:24;;;;;;;7.55;4.93;;;;;;;;;;4982930;28;20037;-81
2021/03/19 11:50:09;;;;;;;7.30;5.13;;;;;;;;;;4982784;28;20033;-82
2021/03/19 11:52:56;;;;;;;8.82;4.90;;;;;;;;;;4981772;28;20497;-81
2021/03/19 11:55:44;;;;;;;8.65;5.13;;;;;;;;;;4987169;28;20113;-81
2021/03/19 11:58:30;;;;;;;9.35;5.47;;;;;;;;;;4991054;28;20051;-85
2021/03/19 12:01:18;;;;;;;8.57;5.55;;;;;;;;;;4994853;28;20029;-86
2021/03/19 12:04:03;;;;;;;8.27;5.15;;;;;;;;;;4977211;28;20032;-88
2021/03/19 12:06:51;;;;;;;11.00;6.88;;;;;;;;;;5007635;28;20036;-84
2021/03/19 12:09:39;;;;;;;10.20;6.40;;;;;;;;;;4987646;28;20032;-79
2021/03/19 12:12:25;;;;;;;10.27;6.57;;;;;;;;;;4991827;28;20020;-79
2021/03/19 12:15:13;;;;;;;11.15;7.53;;;;;;;;;;4981853;28;20013;-82
2021/03/19 12:17:59;;;;;;;12.13;8.05;;;;;;;;;;4997738;28;20029;-79
2021/03/19 12:20:45;;;;;;;13.05;7.72;;;;;;;;;;4998927;28;20487;-84
2021/03/19 12:23:38;;;;;;;11.30;7.50;;;;;;;;;;5002805;28;20060;-82
2021/03/19 12:26:23;;;;;;;11.65;7.90;;;;;;;;;;4983326;28;20070;-83
2021/03/19 12:29:09;;;;;;;16.02;8.82;;;;;;;;;;5005700;28;20053;-83
2021/03/19 12:31:55;;;;;;;12.00;8.00;;;;;;;;;;5005217;28;20034;-85
2021/03/19 12:34:41;;;;;;;11.73;8.48;;;;;;;;;;4988837;28;20022;-84
2021/03/19 12:37:29;;;;;;;12.48;8.20;;;;;;;;;;5005176;28;20469;-84
2021/03/19 12:40:15;;;;;;;13.40;9.02;;;;;;;;;;4984663;28;20025;-85
2021/03/19 12:43:00;;;;;;;13.05;8.40;;;;;;;;;;5002166;28;20076;-85
2021/03/19 12:45:46;;;;;;;15.80;9.55;;;;;;;;;;4978793;28;20132;-86
2021/03/19 12:48:34;;;;;;;15.13;9.98;;;;;;;;;;5000556;28;20032;-85
2021/03/19 12:51:20;;;;;;;15.85;9.98;;;;;;;;;;4981754;28;20027;-85
2021/03/19 12:54:08;;;;;;;17.40;11.88;;;;;;;;;;4980146;28;20050;-84
2021/03/19 12:56:53;;;;;;;18.67;10.98;;;;;;;;;;4976758;28;20108;-85
2021/03/19 12:59:39;;;;;;;19.30;13.00;;;;;;;;;;4994332;28;20058;-84
2021/03/19 13:02:24;;;;;;;19.13;13.50;;;;;;;;;;4992396;28;20024;-83
2021/03/19 13:05:10;;;;;;;20.27;13.32;;;;;;;;;;4998753;28;20045;-82
2021/03/19 13:07:56;;;;;;;21.85;13.32;;;;;;;;;;4985229;28;20436;-82
2021/03/19 13:10:41;;;;;;;21.25;14.20;;;;;;;;;;4997311;28;20022;-82
2021/03/19 13:13:26;;;;;;;20.85;13.23;;;;;;;;;;4997031;28;20125;-83
2021/03/19 13:16:12;;;;;;;20.10;13.45;;;;;;;;;;4979248;28;20033;-85
2021/03/19 13:18:57;;;;;;;21.52;14.75;;;;;;;;;;5000832;28;20014;-85
2021/03/19 13:21:42;;;;;;;18.52;12.93;;;;;;;;;;5001829;28;20045;-84
2021/03/19 13:24:28;;;;;;;21.77;13.43;;;;;;;;;;4999432;28;20038;-84
2021/03/19 13:27:13;;;;;;;21.45;14.38;;;;;;;;;;4980366;28;20072;-84
2021/03/19 13:29:58;;;;;;;21.75;14.80;;;;;;;;;;4988571;28;20050;-85
2021/03/19 13:32:47;;;;;;;22.52;14.98;;;;;;;;;;4974833;28;20413;-84
2021/03/19 13:35:58;;;;;;;20.92;13.23;;;;;;;;;;5006228;28;20036;-87
2021/03/19 13:38:43;;;;;;;22.90;14.40;;;;;;;;;;4981690;28;20034;-85
2021/03/19 13:41:31;;;;;;;21.88;13.40;;;;;;;;;;4999762;28;20034;-84
2021/03/19 13:44:17;;;;;;;17.63;11.60;;;;;;;;;;4981159;28;20025;-84
2021/03/19 13:47:03;;;;;;;16.27;10.93;;;;;;;;;;5004599;28;20036;-84
2021/03/19 13:49:48;;;;;;;18.48;11.38;;;;;;;;;;4995574;28;20127;-85
2021/03/19 13:52:33;;;;;;;17.25;11.65;;;;;;;;;;4983253;28;20017;-82
2021/03/19 13:55:19;;;;;;;16.20;10.32;;;;;;;;;;5008522;28;20410;-85
2021/03/19 13:58:04;;;;;;;16.98;11.20;;;;;;;;;;4993451;28;20034;-84
2021/03/19 14:00:50;;;;;;;21.65;11.88;;;;;;;;;;5001399;28;20036;-85
2021/03/19 14:03:38;;;;;;;16.45;12.10;;;;;;;;;;5002466;28;20030;-86
2021/03/19 14:06:25;;;;;;;17.27;12.20;;;;;;;;;;5007955;28;20037;-86
2021/03/19 14:09:11;;;;;;;18.23;11.50;;;;;;;;;;4983760;28;20033;-85
2021/03/19 14:11:56;;;;;;;28.25;16.65;;;;;;;;;;4989074;28;20114;-82
2021/03/19 14:14:41;;;;;;;22.48;12.70;;;;;;;;;;4986128;28;20034;-83
2021/03/19 14:17:27;;;;;;;22.35;13.25;;;;;;;;;;4987864;28;20034;-84
2021/03/19 14:20:24;;;;;;;17.30;12.40;;;;;;;;;;4999283;28;20377;-85
2021/03/19 14:23:10;;;;;;;19.73;12.90;;;;;;;;;;4986660;28;20136;-82
2021/03/19 14:25:57;;;;;;;21.98;13.82;;;;;;;;;;4987527;28;20017;-84
2021/03/19 14:28:44;;;;;;;19.65;12.75;;;;;;;;;;4986234;28;20123;-86
2021/03/19 14:31:30;;;;;;;17.80;12.45;;;;;;;;;;4971398;28;20558;-84
2021/03/19 14:34:15;;;;;;;19.15;12.43;;;;;;;;;;4983356;28;20022;-85
2021/03/19 14:37:12;;;;;;;14.73;10.10;;;;;;;;;;5005489;28;20041;-91
2021/03/19 14:39:57;;;;;;;15.65;9.23;;;;;;;;;;5003805;28;20089;-89
2021/03/19 14:42:42;;;;;;;13.52;9.18;;;;;;;;;;4991922;28;20057;-92
2021/03/19 14:45:28;;;;;;;13.85;8.00;;;;;;;;;;4982780;28;20505;-83
2021/03/19 14:48:21;;;;;;;10.70;7.03;;;;;;;;;;4992188;28;20029;-83
2021/03/19 14:51:11;;;;;;;14.00;8.02;;;;;;;;;;4984812;28;20018;-83
2021/03/19 14:53:56;;;;;;;15.20;8.07;;;;;;;;;;4989918;28;20022;-83
2021/03/19 14:56:43;;;;;;;12.70;7.85;;;;;;;;;;4996362;28;20045;-83
2021/03/19 14:59:28;;;;;;;14.93;8.65;;;;;;;;;;4985856;28;20098;-83
2021/03/19 15:02:13;;;;;;;13.65;7.40;;;;;;;;;;5003591;28;20021;-82
2021/03/19 15:05:02;;;;;;;18.02;11.00;;;;;;;;;;4987213;28;20385;-84
2021/03/19 15:07:47;;;;;;;12.57;8.93;;;;;;;;;;4984084;28;20026;-84
2021/03/19 15:10:34;;;;;;;13.20;7.80;;;;;;;;;;4988797;28;20034;-84
2021/03/19 15:13:19;;;;;;;13.27;8.38;;;;;;;;;;5001462;28;20408;-84
2021/03/19 15:16:05;;;;;;;14.20;8.70;;;;;;;;;;4981359;28;21858;-84
2021/03/19 15:18:51;;;;;;;13.25;8.77;;;;;;;;;;4987839;28;20089;-85
2021/03/19 15:21:36;;;;;;;13.52;8.95;;;;;;;;;;4997849;28;20033;-84
2021/03/19 15:24:22;;;;;;;15.48;8.77;;;;;;;;;;4998094;28;20026;-85
2021/03/19 15:27:07;;;;;;;15.27;8.80;;;;;;;;;;4982758;28;20049;-84
2021/03/19 15:29:52;;;;;;;12.50;8.65;;;;;;;;;;5004743;28;20026;-85
2021/03/19 15:32:38;;;;;;;13.95;7.78;;;;;;;;;;4973520;28;20021;-83
2021/03/19 15:35:23;;;;;;;13.88;8.55;;;;;;;;;;4987887;28;20021;-84
2021/03/19 15:38:09;;;;;;;16.90;10.98;;;;;;;;;;4988253;28;20037;-83
2021/03/19 15:40:55;;;;;;;18.17;11.10;;;;;;;;;;4991789;28;20115;-87
2021/03/19 15:43:43;;;;;;;19.80;12.13;;;;;;;;;;4998536;28;20026;-87
2021/03/19 15:46:28;;;;;;;14.07;8.50;;;;;;;;;;4975120;28;20056;-88
2021/03/19 15:49:13;;;;;;;12.43;7.78;;;;;;;;;;4982667;28;20034;-86
2021/03/19 15:51:58;;;;;;;14.48;7.97;;;;;;;;;;5001867;28;20026;-86
2021/03/19 15:54:45;;;;;;;14.13;9.02;;;;;;;;;;4995886;28;20045;-88
2021/03/19 15:57:39;;;;;;;13.50;7.55;;;;;;;;;;4998567;28;20045;-87
2021/03/19 16:00:26;;;;;;;13.40;7.88;;;;;;;;;;4981320;28;20026;-85
2021/03/19 16:03:12;;;;;;;12.77;8.30;;;;;;;;;;4984795;28;20031;-88
2021/03/19 16:06:00;;;;;;;13.00;8.80;;;;;;;;;;4983227;28;20101;-85
2021/03/19 16:08:45;;;;;;;15.30;7.95;;;;;;;;;;4983110;28;20029;-88
2021/03/19 16:11:31;;;;;;;14.77;8.68;;;;;;;;;;4994752;28;20026;-86
2021/03/19 16:14:16;;;;;;;15.90;8.55;;;;;;;;;;4977319;28;20027;-87
2021/03/19 16:17:01;;;;;;;12.98;8.45;;;;;;;;;;4964148;28;20018;-86
2021/03/19 16:19:47;;;;;;;12.60;7.47;;;;;;;;;;4966356;28;20521;-87
2021/03/19 16:22:35;;;;;;;13.13;8.57;;;;;;;;;;4996673;28;20108;-86
2021/03/19 16:25:23;;;;;;;17.35;8.95;;;;;;;;;;4984478;28;20065;-86
2021/03/19 16:28:10;;;;;;;12.50;7.30;;;;;;;;;;4999215;28;20085;-86
2021/03/19 16:30:57;;;;;;;15.13;7.75;;;;;;;;;;4992714;28;20122;-86
2021/03/19 16:33:42;;;;;;;13.18;7.55;;;;;;;;;;4963681;28;20030;-86
2021/03/19 16:36:28;;;;;;;14.88;8.05;;;;;;;;;;4986608;28;20018;-87
2021/03/19 16:39:13;;;;;;;13.02;7.38;;;;;;;;;;4979614;28;20038;-86
2021/03/19 16:41:58;;;;;;;12.45;7.72;;;;;;;;;;4982431;28;20555;-86
2021/03/19 16:44:43;;;;;;;11.90;7.72;;;;;;;;;;4985729;28;20485;-86
2021/03/19 16:47:29;;;;;;;13.15;6.95;;;;;;;;;;4988158;28;20025;-86